Time;durP1;ratioP1;P1;durP2;ratioP2;P2;SDS_P1;SDS_P2;PMS_P1;PMS_P2;Temp;Humidity;BMP_temperature;BMP_pressure;BME280_temperature;BME280_humidity;BME280_pressure;Samples;Min_cycle;Max_cycle;Signal;HPM_P1;HPM_P2
2022/06/16 00:01:40;;;;;;;2.23;1.90;;;19.20;99.90;;;;;;5076937;28;20532;-71
2022/06/16 00:04:06;;;;;;;2.27;2.07;;;19.20;99.90;;;;;;5076709;28;20224;-71
2022/06/16 00:06:32;;;;;;;1.50;1.40;;;19.20;99.90;;;;;;5078670;28;20197;-71
2022/06/16 00:08:58;;;;;;;2.30;2.10;;;19.20;99.90;;;;;;5096472;28;20686;-71
2022/06/16 00:11:24;;;;;;;2.90;1.73;;;19.20;99.90;;;;;;5097266;28;20396;-72
2022/06/16 00:13:51;;;;;;;1.80;1.70;;;19.20;99.90;;;;;;5096780;28;20197;-72
2022/06/16 00:16:19;;;;;;;2.27;2.07;;;19.20;99.90;;;;;;5094710;28;20427;-72
2022/06/16 00:18:45;;;;;;;1.83;1.50;;;19.20;99.90;;;;;;5075194;28;20409;-70
2022/06/16 00:21:11;;;;;;;1.57;1.30;;;19.10;99.90;;;;;;5076679;28;20816;-71
2022/06/16 00:23:37;;;;;;;1.83;1.73;;;19.10;99.90;;;;;;5076525;28;20771;-72
2022/06/16 00:26:03;;;;;;;1.80;1.70;;;19.10;99.90;;;;;;5076311;28;20443;-72
2022/06/16 00:28:29;;;;;;;1.70;1.60;;;19.00;99.90;;;;;;5077538;28;20420;-71
2022/06/16 00:31:05;;;;;;;2.57;1.60;;;19.00;99.90;;;;;;5075034;28;20177;-72
2022/06/16 00:33:31;;;;;;;6.03;2.20;;;19.00;99.90;;;;;;5076483;28;20166;-70
2022/06/16 00:35:57;;;;;;;2.70;2.07;;;19.00;99.90;;;;;;5075930;28;20542;-72
2022/06/16 00:38:24;;;;;;;3.27;1.83;;;19.00;99.90;;;;;;5091490;28;20415;-72
2022/06/16 00:40:51;;;;;;;2.07;1.40;;;19.00;99.90;;;;;;5096432;28;20222;-72
2022/06/16 00:43:16;;;;;;;1.60;1.50;;;19.00;99.90;;;;;;5095962;28;20913;-71
2022/06/16 00:45:50;;;;;;;2.60;2.10;;;19.00;99.90;;;;;;5094796;28;20451;-72
2022/06/16 00:48:33;;;;;;;1.50;1.40;;;19.00;99.90;;;;;;5093036;28;20169;-72
2022/06/16 00:51:08;;;;;;;1.80;1.70;;;18.90;99.90;;;;;;5094775;28;20395;-71
2022/06/16 00:53:34;;;;;;;2.60;2.07;;;18.90;99.90;;;;;;5095121;28;20430;-71
2022/06/16 00:56:00;;;;;;;2.47;1.60;;;18.90;99.90;;;;;;5092984;28;20407;-71
2022/06/16 00:58:28;;;;;;;2.53;1.60;;;18.90;99.90;;;;;;5091546;28;20430;-72
2022/06/16 01:00:54;;;;;;;3.50;1.70;;;18.90;99.90;;;;;;5094120;28;20407;-73
2022/06/16 01:06:25;;;;;;;2.00;1.60;;;18.90;99.90;;;;;;5093065;28;20623;-72
2022/06/16 01:08:55;;;;;;;2.33;1.63;;;18.80;99.90;;;;;;5073848;28;20405;-73
2022/06/16 01:15:00;;;;;;;1.90;1.80;;;18.80;99.90;;;;;;5073680;28;20399;-73
2022/06/16 01:17:52;;;;;;;2.30;1.67;;;18.70;99.90;;;;;;5085321;28;20431;-72
2022/06/16 01:20:56;;;;;;;2.97;1.87;;;18.70;99.90;;;;;;5094390;28;20419;-72
2022/06/16 01:23:58;;;;;;;2.03;1.77;;;18.70;99.90;;;;;;5049840;28;20418;-72
2022/06/16 01:26:39;;;;;;;1.70;1.53;;;18.60;99.90;;;;;;5092197;28;20442;-72
2022/06/16 01:29:12;;;;;;;1.90;1.60;;;18.50;99.90;;;;;;5085719;28;20422;-72
2022/06/16 01:31:48;;;;;;;1.40;1.23;;;18.50;99.90;;;;;;5095982;28;20427;-72
2022/06/16 01:34:45;;;;;;;2.23;1.73;;;18.50;99.90;;;;;;5095011;28;20467;-69
2022/06/16 01:37:31;;;;;;;5.13;2.10;;;18.50;99.90;;;;;;5096412;28;20419;-71
2022/06/16 01:40:02;;;;;;;1.97;1.40;;;18.40;99.90;;;;;;5079064;28;20829;-71
2022/06/16 01:42:31;;;;;;;1.70;1.53;;;18.40;99.90;;;;;;5076346;28;20879;-72
2022/06/16 01:45:07;;;;;;;2.40;2.00;;;18.40;99.90;;;;;;5074312;28;20461;-71
2022/06/16 01:47:34;;;;;;;3.57;1.70;;;18.40;99.90;;;;;;5079743;28;20438;-73
2022/06/16 01:50:13;;;;;;;2.27;2.07;;;18.30;99.90;;;;;;5095935;28;20510;-72
2022/06/16 01:52:50;;;;;;;1.70;1.60;;;18.40;99.90;;;;;;5100155;28;20766;-72
2022/06/16 01:55:26;;;;;;;2.17;1.37;;;18.30;99.90;;;;;;5099520;28;20522;-72
2022/06/16 01:58:04;;;;;;;1.97;1.60;;;18.30;99.90;;;;;;5084079;28;21096;-72
2022/06/16 02:00:32;;;;;;;2.10;1.80;;;18.30;99.90;;;;;;5079083;28;20445;-71
2022/06/16 02:03:03;;;;;;;1.73;1.63;;;18.20;99.90;;;;;;5079878;28;20469;-72
2022/06/16 02:05:31;;;;;;;2.30;1.33;;;18.20;99.90;;;;;;5080148;28;20448;-72
2022/06/16 02:08:17;;;;;;;1.53;1.33;;;18.20;99.90;;;;;;5093699;28;20498;-72
2022/06/16 02:10:49;;;;;;;2.00;1.63;;;18.20;99.90;;;;;;5100654;28;20407;-72
2022/06/16 02:13:19;;;;;;;1.83;1.60;;;18.10;99.90;;;;;;5099278;28;20929;-72
2022/06/16 02:15:47;;;;;;;1.60;1.20;;;18.10;99.90;;;;;;5099994;28;20407;-72
2022/06/16 02:18:17;;;;;;;1.33;1.00;;;18.00;99.90;;;;;;5082406;28;20515;-73
2022/06/16 02:20:56;;;;;;;1.50;1.10;;;18.00;99.90;;;;;;5078523;28;20412;-72
2022/06/16 02:23:22;;;;;;;1.50;1.40;;;18.00;99.90;;;;;;5079821;28;20918;-72
2022/06/16 02:25:52;;;;;;;1.57;1.27;;;17.90;99.90;;;;;;5078835;28;20497;-72
2022/06/16 02:28:17;;;;;;;1.80;1.70;;;17.90;99.90;;;;;;5096729;28;20170;-72
2022/06/16 02:31:09;;;;;;;2.43;2.23;;;17.90;99.90;;;;;;5099580;28;20751;-72
2022/06/16 02:33:44;;;;;;;5.53;2.00;;;17.90;99.90;;;;;;5099534;28;20161;-72
2022/06/16 02:36:46;;;;;;;2.47;1.80;;;17.90;99.90;;;;;;5099803;28;20419;-73
2022/06/16 02:39:24;;;;;;;1.80;1.50;;;17.90;99.90;;;;;;5095442;28;20412;-73
2022/06/16 02:42:20;;;;;;;2.20;2.03;;;17.90;99.90;;;;;;5080017;28;20396;-72
2022/06/16 02:45:00;;;;;;;1.83;1.50;;;17.80;99.90;;;;;;5079034;28;20462;-73
2022/06/16 02:47:48;;;;;;;1.70;1.40;;;17.80;99.90;;;;;;5089927;28;20485;-72
2022/06/16 02:50:35;;;;;;;2.10;1.70;;;17.70;99.90;;;;;;5099737;28;20404;-73
2022/06/16 02:53:38;;;;;;;1.53;1.43;;;17.60;99.90;;;;;;5099699;28;20402;-72
2022/06/16 02:56:12;;;;;;;1.50;1.40;;;17.60;99.90;;;;;;5099281;28;20505;-72
2022/06/16 02:58:42;;;;;;;1.50;1.40;;;17.50;99.90;;;;;;5079776;28;20523;-73
2022/06/16 03:01:10;;;;;;;1.50;1.40;;;17.50;99.90;;;;;;5077723;28;20415;-73
2022/06/16 03:03:36;;;;;;;1.63;1.53;;;17.40;99.90;;;;;;5078786;28;20413;-71
2022/06/16 03:06:03;;;;;;;1.97;1.33;;;17.40;99.90;;;;;;5077013;28;20466;-73
2022/06/16 03:08:30;;;;;;;1.70;1.60;;;17.40;99.90;;;;;;5095361;28;20538;-73
2022/06/16 03:10:58;;;;;;;1.67;1.57;;;17.40;99.90;;;;;;5098759;28;20407;-72
2022/06/16 03:13:29;;;;;;;4.50;1.80;;;17.40;99.90;;;;;;5098596;28;20407;-73
2022/06/16 03:15:56;;;;;;;4.30;1.57;;;17.30;99.90;;;;;;5098270;28;20422;-73
2022/06/16 03:18:23;;;;;;;2.10;1.70;;;17.30;99.90;;;;;;5080604;28;20432;-72
2022/06/16 03:20:49;;;;;;;3.20;1.73;;;17.30;99.90;;;;;;5077088;28;21072;-73
2022/06/16 03:23:15;;;;;;;2.83;1.90;;;17.20;99.90;;;;;;5073185;28;20495;-73
2022/06/16 03:25:41;;;;;;;2.40;1.90;;;17.20;99.90;;;;;;5077981;28;20436;-73
2022/06/16 03:28:08;;;;;;;2.83;2.20;;;17.20;99.90;;;;;;5091367;28;20419;-73
2022/06/16 03:30:35;;;;;;;2.03;1.87;;;17.10;99.90;;;;;;5097360;28;20960;-72
2022/06/16 03:33:01;;;;;;;1.77;1.63;;;17.10;99.90;;;;;;5097457;28;20465;-72
2022/06/16 03:35:27;;;;;;;2.00;1.60;;;17.00;99.90;;;;;;5094618;28;20403;-73
2022/06/16 03:37:53;;;;;;;2.40;2.03;;;17.00;99.90;;;;;;5080979;28;20451;-73
2022/06/16 03:40:20;;;;;;;1.80;1.50;;;16.90;99.90;;;;;;5073707;28;20484;-73
2022/06/16 03:42:47;;;;;;;2.00;1.83;;;16.90;99.90;;;;;;5075797;28;20165;-73
2022/06/16 03:45:13;;;;;;;2.00;1.80;;;16.90;99.90;;;;;;5093541;28;20451;-73
2022/06/16 03:47:38;;;;;;;1.67;1.57;;;16.90;99.90;;;;;;5095573;28;20422;-72
2022/06/16 03:50:05;;;;;;;2.57;2.30;;;16.80;99.90;;;;;;5095094;28;20435;-73
2022/06/16 03:52:31;;;;;;;1.90;1.67;;;16.80;99.90;;;;;;5095250;28;20315;-73
2022/06/16 03:54:56;;;;;;;2.50;2.30;;;16.80;99.90;;;;;;5079123;28;20471;-73
2022/06/16 03:57:22;;;;;;;2.47;1.90;;;16.80;99.90;;;;;;5075472;28;20711;-72
2022/06/16 03:59:47;;;;;;;2.10;1.90;;;16.80;99.90;;;;;;5075779;28;20212;-73
2022/06/16 04:02:13;;;;;;;2.07;1.87;;;16.80;99.90;;;;;;5076115;28;20167;-72
2022/06/16 04:04:38;;;;;;;1.87;1.77;;;16.80;99.90;;;;;;5088482;28;20249;-73
2022/06/16 04:07:04;;;;;;;2.03;1.77;;;16.80;99.90;;;;;;5094824;28;20186;-73
2022/06/16 04:09:30;;;;;;;4.10;2.07;;;16.80;99.90;;;;;;5093507;28;20215;-73
2022/06/16 04:11:55;;;;;;;2.50;1.90;;;16.80;99.90;;;;;;5094268;28;20504;-73
2022/06/16 04:14:21;;;;;;;2.30;1.70;;;16.80;99.90;;;;;;5083159;28;20209;-72
2022/06/16 04:16:49;;;;;;;4.60;1.80;;;16.80;99.90;;;;;;5074892;28;20189;-73
2022/06/16 04:19:18;;;;;;;2.33;1.67;;;16.80;99.90;;;;;;5075618;28;20532;-72
2022/06/16 04:21:45;;;;;;;2.23;1.70;;;16.80;99.90;;;;;;5075186;28;20421;-71
2022/06/16 04:24:12;;;;;;;3.27;2.10;;;16.80;99.90;;;;;;5083462;28;20451;-72
2022/06/16 04:26:38;;;;;;;2.40;2.10;;;16.70;99.90;;;;;;5095488;28;20427;-73
2022/06/16 04:29:06;;;;;;;4.07;2.20;;;16.70;99.90;;;;;;5095510;28;20940;-72
2022/06/16 04:31:32;;;;;;;1.80;1.53;;;16.70;99.90;;;;;;5094870;28;20917;-73
2022/06/16 04:33:57;;;;;;;4.27;2.10;;;16.70;99.90;;;;;;5087866;28;20495;-72
2022/06/16 04:36:23;;;;;;;5.20;1.60;;;16.70;99.90;;;;;;5073894;28;20436;-72
2022/06/16 04:38:49;;;;;;;2.50;1.80;;;16.70;99.90;;;;;;5075206;28;20408;-73
2022/06/16 04:41:16;;;;;;;2.93;2.00;;;16.70;99.90;;;;;;5073343;28;20644;-72
2022/06/16 04:43:41;;;;;;;2.23;2.03;;;16.70;99.90;;;;;;5077031;28;20632;-73
2022/06/16 04:46:08;;;;;;;2.30;2.00;;;16.60;99.90;;;;;;5093018;28;20467;-73
2022/06/16 04:48:35;;;;;;;3.20;2.40;;;16.60;99.90;;;;;;5092997;28;20176;-73
2022/06/16 04:51:03;;;;;;;1.87;1.70;;;16.60;99.90;;;;;;5094523;28;20409;-71
2022/06/16 04:53:29;;;;;;;1.60;1.40;;;16.60;99.90;;;;;;5092287;28;20419;-72
2022/06/16 04:55:56;;;;;;;3.90;1.83;;;16.70;99.90;;;;;;5073139;28;20412;-71
2022/06/16 04:58:23;;;;;;;1.87;1.60;;;16.70;99.90;;;;;;5074989;28;20408;-73
2022/06/16 05:00:50;;;;;;;2.17;1.97;;;16.70;99.90;;;;;;5075575;28;20488;-73
2022/06/16 05:03:17;;;;;;;2.00;1.40;;;16.70;99.90;;;;;;5076185;28;20412;-72
2022/06/16 05:05:46;;;;;;;2.00;1.53;;;16.70;99.90;;;;;;5076670;28;20884;-72
2022/06/16 05:08:13;;;;;;;3.43;1.90;;;16.70;99.90;;;;;;5075425;28;20417;-73
2022/06/16 05:10:39;;;;;;;2.47;1.77;;;16.80;99.90;;;;;;5079296;28;20415;-73
2022/06/16 05:13:04;;;;;;;2.20;2.00;;;16.80;99.90;;;;;;5094909;28;20937;-73
2022/06/16 05:15:30;;;;;;;1.47;1.30;;;16.80;99.90;;;;;;5093828;28;20423;-73
2022/06/16 05:17:56;;;;;;;2.70;1.80;;;16.90;99.90;;;;;;5094432;28;20647;-73
2022/06/16 05:20:21;;;;;;;2.70;1.83;;;16.90;99.90;;;;;;5094471;28;20165;-72
2022/06/16 05:22:47;;;;;;;1.60;1.50;;;17.00;99.90;;;;;;5077996;28;20174;-73
2022/06/16 05:25:12;;;;;;;1.60;1.50;;;17.00;99.90;;;;;;5077614;28;20227;-72
2022/06/16 05:27:38;;;;;;;1.90;1.77;;;17.10;99.90;;;;;;5077590;28;20178;-73
2022/06/16 05:30:05;;;;;;;1.83;1.50;;;17.10;99.90;;;;;;5077718;28;20166;-73
2022/06/16 05:32:30;;;;;;;1.53;1.40;;;17.20;99.90;;;;;;5096694;28;20162;-73
2022/06/16 05:34:56;;;;;;;2.33;1.80;;;17.30;99.90;;;;;;5097869;28;20816;-73
2022/06/16 05:37:21;;;;;;;3.10;2.00;;;17.40;99.90;;;;;;5097973;28;20697;-72
2022/06/16 05:39:49;;;;;;;1.93;1.73;;;17.40;99.90;;;;;;5097712;28;20170;-73
2022/06/16 05:42:15;;;;;;;2.03;1.83;;;17.50;99.90;;;;;;5080337;28;20174;-73
2022/06/16 05:44:41;;;;;;;2.90;2.30;;;17.60;99.90;;;;;;5077418;28;20458;-73
2022/06/16 05:47:07;;;;;;;2.20;1.90;;;17.60;99.90;;;;;;5075908;28;20413;-73
2022/06/16 05:49:33;;;;;;;2.10;1.80;;;17.70;99.90;;;;;;5077932;28;20157;-72
2022/06/16 05:52:00;;;;;;;3.10;2.20;;;17.80;99.90;;;;;;5091712;28;20435;-73
2022/06/16 05:54:25;;;;;;;2.70;2.10;;;17.90;99.90;;;;;;5097388;28;20772;-73
2022/06/16 05:56:51;;;;;;;2.50;2.20;;;18.00;99.90;;;;;;5097181;28;20445;-73
2022/06/16 05:59:17;;;;;;;2.33;2.13;;;18.10;99.90;;;;;;5097362;28;20234;-73
2022/06/16 06:01:42;;;;;;;2.33;2.13;;;18.30;99.90;;;;;;5084575;28;20178;-73
2022/06/16 06:04:08;;;;;;;3.13;1.40;;;18.50;99.90;;;;;;5076886;28;20182;-71
2022/06/16 06:06:34;;;;;;;2.27;2.00;;;18.70;99.90;;;;;;5076785;28;20193;-73
2022/06/16 06:17:19;;;;;;;2.67;1.77;;;19.90;99.90;;;;;;5097278;28;20464;-73
2022/06/16 06:19:45;;;;;;;2.50;1.93;;;20.20;99.90;;;;;;5097262;28;20456;-72
2022/06/16 06:22:13;;;;;;;3.93;2.17;;;20.40;99.90;;;;;;5095346;28;20775;-72
2022/06/16 06:24:44;;;;;;;2.10;1.77;;;20.80;99.90;;;;;;5096911;28;20454;-73
2022/06/16 06:27:21;;;;;;;2.03;1.93;;;21.30;99.90;;;;;;5098035;28;20422;-73
2022/06/16 06:29:48;;;;;;;2.40;1.60;;;21.70;99.90;;;;;;5096746;28;20506;-73
2022/06/16 06:32:15;;;;;;;2.10;1.90;;;22.30;99.90;;;;;;5079873;28;20417;-73
2022/06/16 06:34:41;;;;;;;2.20;2.00;;;22.90;99.90;;;;;;5075502;28;20439;-73
2022/06/16 06:37:09;;;;;;;1.97;1.50;;;23.50;99.90;;;;;;5076495;28;20440;-73
2022/06/16 06:39:35;;;;;;;2.60;2.03;;;24.10;99.90;;;;;;5076956;28;20174;-72
2022/06/16 06:42:03;;;;;;;1.70;1.30;;;24.70;99.90;;;;;;5089980;28;20423;-74
2022/06/16 06:44:29;;;;;;;1.90;1.40;;;25.30;99.90;;;;;;5097237;28;20556;-73
2022/06/16 06:46:55;;;;;;;1.50;1.40;;;25.90;99.90;;;;;;5096316;28;20419;-74
2022/06/16 06:49:20;;;;;;;1.87;1.60;;;26.40;99.50;;;;;;5096211;28;20416;-74
2022/06/16 06:51:46;;;;;;;1.43;1.33;;;27.00;96.80;;;;;;5086248;28;20178;-74
2022/06/16 06:54:12;;;;;;;3.20;1.90;;;27.50;93.20;;;;;;5077312;28;20193;-73
2022/06/16 06:56:38;;;;;;;1.67;1.57;;;28.00;91.00;;;;;;5077211;28;20541;-73
2022/06/16 06:59:06;;;;;;;5.53;1.60;;;28.60;88.50;;;;;;5075919;28;20170;-74
2022/06/16 07:01:33;;;;;;;1.67;1.30;;;29.10;82.80;;;;;;5084768;28;20177;-74
2022/06/16 07:03:58;;;;;;;2.17;1.90;;;29.60;74.40;;;;;;5094872;28;20412;-73
2022/06/16 07:06:25;;;;;;;1.57;1.47;;;30.20;68.70;;;;;;5095442;28;20745;-73
2022/06/16 07:08:50;;;;;;;1.73;1.40;;;30.70;66.60;;;;;;5095827;28;20248;-73
2022/06/16 07:11:16;;;;;;;1.50;1.40;;;31.30;64.10;;;;;;5089151;28;20455;-73
2022/06/16 07:13:42;;;;;;;1.93;1.73;;;31.80;58.60;;;;;;5074956;28;20170;-72
2022/06/16 07:16:09;;;;;;;1.30;1.20;;;32.40;57.20;;;;;;5073846;28;20806;-73
2022/06/16 07:18:35;;;;;;;1.57;1.20;;;32.90;55.20;;;;;;5075587;28;20162;-73
2022/06/16 07:21:01;;;;;;;2.03;1.37;;;33.50;54.10;;;;;;5078103;28;20434;-73
2022/06/16 07:23:27;;;;;;;2.37;1.30;;;34.10;52.20;;;;;;5095869;28;20949;-73
2022/06/16 07:25:53;;;;;;;1.47;1.37;;;34.80;50.60;;;;;;5095400;28;20992;-73
2022/06/16 07:28:19;;;;;;;2.47;1.20;;;35.40;48.40;;;;;;5096131;28;20256;-72
2022/06/16 07:30:46;;;;;;;1.80;1.40;;;36.00;46.50;;;;;;5094406;28;20753;-73
2022/06/16 07:33:12;;;;;;;2.03;1.57;;;36.80;45.00;;;;;;5073919;28;20416;-72
2022/06/16 07:35:41;;;;;;;1.53;1.43;;;37.60;43.90;;;;;;5075446;28;20408;-73
2022/06/16 07:38:07;;;;;;;2.10;1.50;;;38.30;41.50;;;;;;5076417;28;20436;-74
2022/06/16 07:40:32;;;;;;;1.53;1.37;;;39.10;39.70;;;;;;5076752;28;20411;-74
2022/06/16 07:42:58;;;;;;;1.60;1.40;;;39.80;38.20;;;;;;5076381;28;20853;-74
2022/06/16 07:45:25;;;;;;;1.60;1.50;;;40.50;37.00;;;;;;5074891;28;20562;-73
2022/06/16 07:47:51;;;;;;;2.77;1.70;;;41.30;36.00;;;;;;5074233;28;20190;-73
2022/06/16 07:50:17;;;;;;;1.57;1.47;;;42.10;35.00;;;;;;5075560;28;20381;-74
2022/06/16 07:52:43;;;;;;;1.50;1.40;;;42.80;33.90;;;;;;5095129;28;20487;-74
2022/06/16 07:55:09;;;;;;;1.77;1.50;;;43.60;32.80;;;;;;5097233;28;20192;-75
2022/06/16 07:57:46;;;;;;;1.40;1.30;;;44.30;32.00;;;;;;5098094;28;20284;-75
2022/06/16 08:00:17;;;;;;;1.80;1.70;;;45.20;31.30;;;;;;5096234;28;20378;-74
2022/06/16 08:02:42;;;;;;;1.70;1.60;;;45.90;30.10;;;;;;5077196;28;20436;-75
2022/06/16 08:05:11;;;;;;;2.07;1.80;;;46.70;29.30;;;;;;5075770;28;20457;-74
2022/06/16 08:07:37;;;;;;;1.83;1.73;;;47.50;28.80;;;;;;5074076;28;20194;-74
2022/06/16 08:10:05;;;;;;;1.73;1.63;;;48.20;28.20;;;;;;5075453;28;20381;-74
2022/06/16 08:12:31;;;;;;;1.60;1.50;;;48.80;27.40;;;;;;5090574;28;20390;-74
2022/06/16 08:14:57;;;;;;;2.33;2.13;;;49.50;26.70;;;;;;5096831;28;20385;-74
2022/06/16 08:17:29;;;;;;;1.97;1.53;;;50.10;26.30;;;;;;5096409;28;20223;-75
2022/06/16 08:19:56;;;;;;;1.60;1.50;;;50.80;25.80;;;;;;5098430;28;20290;-75
2022/06/16 08:22:21;;;;;;;1.97;1.87;;;51.40;25.40;;;;;;5090104;28;20415;-71
2022/06/16 08:24:47;;;;;;;2.20;2.10;;;52.00;25.00;;;;;;5092491;28;20437;-71
2022/06/16 08:27:14;;;;;;;1.77;1.67;;;52.60;24.80;;;;;;5090045;28;20613;-70
2022/06/16 08:29:42;;;;;;;1.70;1.60;;;53.10;24.60;;;;;;5091462;28;20185;-71
2022/06/16 08:32:08;;;;;;;2.30;2.20;;;53.50;24.40;;;;;;5092466;28;20404;-71
2022/06/16 08:34:34;;;;;;;1.83;1.73;;;53.90;24.10;;;;;;5090813;28;20415;-70
2022/06/16 08:36:59;;;;;;;2.03;1.70;;;54.40;23.70;;;;;;5084700;28;20447;-68
2022/06/16 08:39:25;;;;;;;1.93;1.80;;;54.80;23.30;;;;;;5072474;28;20170;-68
2022/06/16 08:41:58;;;;;;;2.03;1.93;;;55.20;23.00;;;;;;5072460;28;20205;-70
2022/06/16 08:44:29;;;;;;;2.17;2.07;;;55.70;22.90;;;;;;5072489;28;20208;-70
2022/06/16 08:47:15;;;;;;;1.80;1.70;;;56.10;22.70;;;;;;5082626;28;20442;-70
2022/06/16 08:50:03;;;;;;;2.27;2.07;;;56.50;22.50;;;;;;5092626;28;20416;-69
2022/06/16 08:52:44;;;;;;;2.50;2.40;;;57.10;22.40;;;;;;5093340;28;20408;-71
2022/06/16 08:55:17;;;;;;;2.40;2.13;;;57.60;22.10;;;;;;5092819;28;20937;-70
2022/06/16 08:57:53;;;;;;;2.00;1.90;;;58.10;21.90;;;;;;5076628;28;20444;-71
2022/06/16 09:00:26;;;;;;;2.40;2.30;;;58.60;21.60;;;;;;5073455;28;20770;-70
2022/06/16 09:03:00;;;;;;;2.23;2.13;;;59.00;21.30;;;;;;5073803;28;20791;-70
2022/06/16 09:05:58;;;;;;;2.50;2.40;;;59.30;21.10;;;;;;5073564;28;20451;-70
2022/06/16 09:08:26;;;;;;;2.50;2.30;;;59.70;20.90;;;;;;5073388;28;20426;-70
2022/06/16 09:11:27;;;;;;;2.90;2.80;;;60.10;20.60;;;;;;5074029;28;20805;-70
2022/06/16 09:14:16;;;;;;;2.60;2.50;;;60.50;20.50;;;;;;5042777;28;20408;-70
2022/06/16 09:17:03;;;;;;;2.40;2.30;;;60.80;20.30;;;;;;5080784;28;20949;-71
2022/06/16 09:19:37;;;;;;;3.07;2.97;;;61.20;20.10;;;;;;5092367;28;20406;-70
2022/06/16 09:22:37;;;;;;;2.77;2.67;;;61.40;20.00;;;;;;5093647;28;20837;-70
2022/06/16 09:25:11;;;;;;;2.60;2.50;;;61.80;19.90;;;;;;5061864;28;20403;-70
2022/06/16 09:27:46;;;;;;;2.97;2.87;;;62.00;19.50;;;;;;5092800;28;20434;-70
2022/06/16 09:30:20;;;;;;;2.70;2.60;;;62.10;19.30;;;;;;5075356;28;20404;-70
2022/06/16 09:32:54;;;;;;;3.20;3.10;;;62.20;19.00;;;;;;5072666;28;20393;-70
2022/06/16 09:35:32;;;;;;;3.10;3.00;;;62.30;18.90;;;;;;5072259;28;21029;-70
2022/06/16 09:38:33;;;;;;;3.47;3.37;;;62.50;18.70;;;;;;5072067;28;20988;-72
2022/06/16 09:44:18;;;;;;;3.20;3.10;;;62.80;18.30;;;;;;5091942;28;20397;-74
2022/06/16 09:46:49;;;;;;;3.10;3.00;;;62.80;18.10;;;;;;5091520;28;20415;-74
2022/06/16 09:49:24;;;;;;;3.50;3.40;;;63.00;17.90;;;;;;5091567;28;20395;-74
2022/06/16 09:51:56;;;;;;;3.03;2.93;;;62.90;17.80;;;;;;5097302;28;20449;-74
2022/06/16 09:54:27;;;;;;;4.33;4.13;;;62.90;17.60;;;;;;5075974;28;20452;-75
2022/06/16 09:57:00;;;;;;;3.57;3.47;;;63.10;17.50;;;;;;5077798;28;20439;-74
2022/06/16 09:59:32;;;;;;;3.70;3.50;;;63.10;17.20;;;;;;5073949;28;20403;-75
2022/06/16 10:02:03;;;;;;;4.40;4.20;;;63.10;17.10;;;;;;5071975;28;20400;-74
2022/06/16 10:04:29;;;;;;;3.67;3.57;;;63.10;17.10;;;;;;5071410;28;20396;-74
2022/06/16 10:07:20;;;;;;;3.23;3.13;;;63.10;17.00;;;;;;5078106;28;20437;-74
2022/06/16 10:09:56;;;;;;;3.97;3.80;;;63.10;17.10;;;;;;5095095;28;20248;-74
2022/06/16 10:12:35;;;;;;;3.40;3.30;;;63.20;16.90;;;;;;5100609;28;20399;-74
2022/06/16 10:15:30;;;;;;;3.47;3.37;;;63.20;17.10;;;;;;5094778;28;20457;-74
2022/06/16 10:17:58;;;;;;;3.60;3.50;;;63.30;17.10;;;;;;5091373;28;20482;-75
2022/06/16 10:20:24;;;;;;;4.57;4.47;;;63.40;17.10;;;;;;5080979;28;20761;-74
2022/06/16 10:23:09;;;;;;;4.20;4.00;;;63.60;17.00;;;;;;5074577;28;20895;-74
2022/06/16 10:25:40;;;;;;;3.97;3.77;;;63.60;17.00;;;;;;5077696;28;20411;-74
2022/06/16 10:28:38;;;;;;;4.40;4.20;;;63.60;16.90;;;;;;5096891;28;20430;-74
2022/06/16 10:31:05;;;;;;;3.83;3.73;;;63.70;16.80;;;;;;5101675;28;20406;-73
2022/06/16 10:33:53;;;;;;;3.60;3.50;;;63.70;16.70;;;;;;5102990;28;20407;-74
2022/06/16 10:36:23;;;;;;;3.60;3.50;;;63.70;16.80;;;;;;5099178;28;20463;-74
2022/06/16 10:39:14;;;;;;;4.60;4.40;;;63.70;16.70;;;;;;5074666;28;20412;-74
2022/06/16 10:41:51;;;;;;;4.00;3.90;;;63.70;16.60;;;;;;5082860;28;20404;-74
2022/06/16 10:44:18;;;;;;;4.00;3.80;;;63.60;16.40;;;;;;5076852;28;20415;-74
2022/06/16 10:47:04;;;;;;;4.73;4.53;;;63.60;16.50;;;;;;5077061;28;20534;-74
2022/06/16 10:49:33;;;;;;;4.20;4.00;;;63.40;16.40;;;;;;5093322;28;20788;-74
2022/06/16 10:52:14;;;;;;;4.27;4.07;;;63.60;16.60;;;;;;5094785;28;21108;-74
2022/06/16 10:54:54;;;;;;;4.23;4.03;;;63.60;17.00;;;;;;5094017;28;20586;-74
2022/06/16 10:57:24;;;;;;;3.83;3.73;;;63.70;16.60;;;;;;5094229;28;20415;-74
2022/06/16 11:00:13;;;;;;;3.90;3.80;;;63.70;16.50;;;;;;5094099;28;20414;-74
2022/06/16 11:02:52;;;;;;;4.00;3.90;;;63.60;16.40;;;;;;5094206;28;20407;-74
2022/06/16 11:05:18;;;;;;;3.93;3.73;;;63.70;16.50;;;;;;5094067;28;20460;-73
2022/06/16 11:07:45;;;;;;;4.17;4.07;;;63.70;16.40;;;;;;5103807;28;20431;-75
2022/06/16 11:10:15;;;;;;;3.70;3.60;;;63.60;16.40;;;;;;5101271;28;20663;-74
2022/06/16 11:12:46;;;;;;;3.97;3.87;;;63.60;16.50;;;;;;5100936;28;20403;-74
2022/06/16 11:15:20;;;;;;;4.20;4.10;;;63.60;16.50;;;;;;5102123;28;20446;-74
2022/06/16 11:17:50;;;;;;;4.23;4.07;;;63.60;16.40;;;;;;5093885;28;20410;-73
2022/06/16 11:20:34;;;;;;;3.60;3.50;;;63.60;16.40;;;;;;5093724;28;20400;-74
2022/06/16 11:23:00;;;;;;;4.30;4.20;;;63.60;16.30;;;;;;5093910;28;20394;-73
2022/06/16 11:25:32;;;;;;;4.10;4.00;;;63.60;16.40;;;;;;5092356;28;20403;-74
2022/06/16 11:28:12;;;;;;;3.60;3.40;;;63.60;16.50;;;;;;5102035;28;20438;-73
2022/06/16 11:30:43;;;;;;;4.40;4.20;;;63.60;16.40;;;;;;5104119;28;20407;-74
2022/06/16 11:36:23;;;;;;;4.47;4.27;;;63.50;16.30;;;;;;5100406;28;20457;-74
2022/06/16 11:39:10;;;;;;;3.87;3.77;;;63.50;16.30;;;;;;5107909;28;20916;-74
2022/06/16 11:41:36;;;;;;;4.43;4.23;;;63.30;16.10;;;;;;5089364;28;20465;-73
2022/06/16 11:44:12;;;;;;;4.20;4.00;;;63.20;16.30;;;;;;5071961;28;20408;-73
2022/06/16 11:46:54;;;;;;;4.40;4.20;;;63.20;16.30;;;;;;5084394;28;20196;-74
2022/06/16 11:49:47;;;;;;;4.50;4.30;;;63.20;16.20;;;;;;5077324;28;20508;-73
2022/06/16 11:52:38;;;;;;;3.63;3.53;;;63.10;16.20;;;;;;5073277;28;20400;-74
2022/06/16 11:55:09;;;;;;;3.30;3.20;;;63.10;16.20;;;;;;5072637;28;20546;-73
2022/06/16 11:58:09;;;;;;;3.60;3.50;;;63.10;16.30;;;;;;5085553;28;20431;-74
2022/06/16 12:00:43;;;;;;;3.60;3.50;;;63.00;16.20;;;;;;5093210;28;20403;-74
2022/06/16 12:03:35;;;;;;;4.03;3.93;;;62.90;16.10;;;;;;5093126;28;20401;-74
2022/06/16 12:06:14;;;;;;;3.50;3.40;;;62.60;15.90;;;;;;5092457;28;20387;-73
2022/06/16 12:09:08;;;;;;;3.20;3.10;;;62.50;16.10;;;;;;5072614;28;20415;-74
2022/06/16 12:11:41;;;;;;;4.00;3.70;;;62.30;16.00;;;;;;5071625;28;20814;-73
2022/06/16 12:14:25;;;;;;;3.80;3.70;;;62.20;16.10;;;;;;5072589;28;20411;-74
2022/06/16 12:17:17;;;;;;;3.20;3.10;;;62.00;16.00;;;;;;5078368;28;20526;-74
2022/06/16 12:19:58;;;;;;;3.33;3.23;;;61.80;16.00;;;;;;5095009;28;20391;-73
2022/06/16 12:22:58;;;;;;;3.83;3.73;;;61.70;16.10;;;;;;5103338;28;20444;-74
2022/06/16 12:25:35;;;;;;;3.80;3.70;;;61.60;16.10;;;;;;5093117;28;20407;-74
2022/06/16 12:28:07;;;;;;;3.00;2.90;;;61.30;16.20;;;;;;5087440;28;20450;-74
2022/06/16 12:30:40;;;;;;;3.43;3.33;;;61.10;16.30;;;;;;5081043;28;20407;-73
2022/06/16 12:33:35;;;;;;;2.80;2.70;;;61.00;16.40;;;;;;5072204;28;20411;-74
2022/06/16 12:36:11;;;;;;;3.07;2.97;;;60.80;16.40;;;;;;5079980;28;20533;-74
2022/06/16 12:38:45;;;;;;;3.00;2.90;;;60.50;16.30;;;;;;5098237;28;20410;-73
2022/06/16 12:41:37;;;;;;;2.40;2.30;;;60.30;16.30;;;;;;5105274;28;20420;-74
2022/06/16 12:44:14;;;;;;;3.07;2.87;;;60.10;16.30;;;;;;5090313;28;20407;-73
2022/06/16 12:46:57;;;;;;;2.70;2.60;;;59.90;16.50;;;;;;5088348;28;20423;-73
2022/06/16 12:49:29;;;;;;;2.30;2.20;;;59.80;16.60;;;;;;5072263;28;20396;-73
2022/06/16 12:52:04;;;;;;;2.57;2.47;;;59.60;16.90;;;;;;5081418;28;20404;-73
2022/06/16 12:54:43;;;;;;;2.60;2.50;;;59.30;16.70;;;;;;5073209;28;20549;-73
2022/06/16 12:57:13;;;;;;;2.40;2.30;;;59.00;16.80;;;;;;5072016;28;20435;-73
2022/06/16 12:59:53;;;;;;;2.10;2.00;;;58.60;16.80;;;;;;5072821;28;20461;-73
2022/06/16 13:02:23;;;;;;;2.10;2.00;;;58.20;17.00;;;;;;5071864;28;20442;-73
2022/06/16 13:04:51;;;;;;;1.93;1.83;;;57.40;17.10;;;;;;5071698;28;20428;-73
2022/06/16 13:07:21;;;;;;;1.90;1.80;;;56.20;17.10;;;;;;5079678;28;20435;-73
2022/06/16 13:09:47;;;;;;;1.70;1.60;;;54.80;17.30;;;;;;5092063;28;20410;-74
2022/06/16 13:12:24;;;;;;;1.50;1.40;;;53.50;17.90;;;;;;5091945;28;20407;-73
2022/06/16 13:14:52;;;;;;;1.30;1.20;;;52.10;18.00;;;;;;5091531;28;20555;-73
2022/06/16 13:17:27;;;;;;;1.40;1.30;;;50.70;18.30;;;;;;5083254;28;20440;-72
2022/06/16 13:19:57;;;;;;;1.37;1.27;;;49.30;18.60;;;;;;5071973;28;20411;-73
2022/06/16 13:22:28;;;;;;;1.40;1.30;;;48.00;18.90;;;;;;5072476;28;20375;-72
2022/06/16 13:24:58;;;;;;;1.40;1.30;;;46.70;19.30;;;;;;5072205;28;20397;-72
2022/06/16 13:27:31;;;;;;;1.40;1.30;;;45.50;19.80;;;;;;5072090;28;20405;-72
2022/06/16 13:30:18;;;;;;;1.23;1.13;;;44.30;20.90;;;;;;5071762;28;20780;-72
2022/06/16 13:32:50;;;;;;;1.30;1.20;;;43.00;20.90;;;;;;5071888;28;20386;-71
2022/06/16 13:35:16;;;;;;;1.40;1.30;;;41.90;21.40;;;;;;5071628;28;20440;-73